Time;durP1;ratioP1;P1;durP2;ratioP2;P2;SDS_P1;SDS_P2;PMS_P1;PMS_P2;Temp;Humidity;BMP_temperature;BMP_pressure;BME280_temperature;BME280_humidity;BME280_pressure;Samples;Min_cycle;Max_cycle;Signal;HPM_P1;HPM_P2
2021/03/24 00:01:36;;;;;;;12.52;7.72;;;;;;;3.60;53.44;94694.41;5102805;28;20194;-66
2021/03/24 00:04:03;;;;;;;11.82;7.63;;;;;;;3.47;54.13;94683.41;5091414;28;20230;-67
2021/03/24 00:06:30;;;;;;;11.80;7.47;;;;;;;3.80;53.56;94694.16;5102251;28;20329;-68
2021/03/24 00:08:56;;;;;;;11.10;7.15;;;;;;;3.86;53.70;94678.53;5107406;28;20227;-65
2021/03/24 00:11:23;;;;;;;14.75;8.00;;;;;;;3.87;53.87;94680.13;5101014;28;20274;-69
2021/03/24 00:13:49;;;;;;;10.80;7.20;;;;;;;3.77;54.25;94684.25;5092174;28;20681;-66
2021/03/24 00:16:16;;;;;;;13.00;7.82;;;;;;;3.58;53.90;94680.06;5097924;28;20298;-67
2021/03/24 00:18:42;;;;;;;12.48;6.95;;;;;;;3.31;54.06;94671.81;5109634;28;20206;-68
2021/03/24 00:21:10;;;;;;;10.05;6.85;;;;;;;3.56;53.88;94679.53;5104636;27;20676;-69
2021/03/24 00:23:36;;;;;;;12.40;7.07;;;;;;;3.41;54.15;94672.13;5094159;28;20199;-68
2021/03/24 00:26:03;;;;;;;9.40;6.95;;;;;;;3.49;53.65;94683.97;5098109;28;20308;-65
2021/03/24 00:28:30;;;;;;;12.38;7.35;;;;;;;3.37;54.08;94683.13;5094749;28;20215;-67
2021/03/24 00:30:56;;;;;;;10.95;6.82;;;;;;;3.59;53.84;94681.69;5097172;28;20195;-64
2021/03/24 00:33:25;;;;;;;11.00;6.85;;;;;;;3.67;53.61;94678.78;5095821;28;20199;-67
2021/03/24 00:35:53;;;;;;;10.50;6.40;;;;;;;3.31;54.53;94674.41;5097001;28;20190;-68
2021/03/24 00:38:22;;;;;;;11.50;7.00;;;;;;;3.43;54.78;94682.25;5096800;28;20461;-63
2021/03/24 00:40:51;;;;;;;11.90;7.05;;;;;;;3.54;54.54;94678.94;5097424;28;20699;-67
2021/03/24 00:43:17;;;;;;;9.90;6.72;;;;;;;3.55;55.11;94676.13;5096607;28;20665;-66
2021/03/24 00:45:44;;;;;;;10.77;6.88;;;;;;;3.57;55.59;94681.09;5095981;28;20208;-66
2021/03/24 00:48:28;;;;;;;10.45;6.97;;;;;;;3.54;55.46;94676.38;5099016;28;20283;-67
2021/03/24 00:50:56;;;;;;;10.50;6.90;;;;;;;3.22;57.25;94685.25;5097357;28;20703;-67
2021/03/24 00:53:24;;;;;;;13.27;6.90;;;;;;;3.11;57.60;94679.00;5094277;28;20251;-69
2021/03/24 00:55:52;;;;;;;10.10;7.18;;;;;;;3.10;59.03;94678.22;5096027;28;20667;-65
2021/03/24 00:58:19;;;;;;;11.70;6.95;;;;;;;3.01;59.81;94687.25;5096756;28;20278;-65
2021/03/24 01:00:47;;;;;;;9.90;6.55;;;;;;;2.75;61.55;94684.13;5096160;28;20207;-67
2021/03/24 01:03:14;;;;;;;10.52;7.07;;;;;;;2.80;61.92;94687.66;5096548;28;20197;-68
2021/03/24 01:05:44;;;;;;;11.77;6.60;;;;;;;2.41;63.48;94667.28;5094332;28;20222;-66
2021/03/24 01:08:13;;;;;;;11.75;8.20;;;;;;;2.65;63.84;94674.25;5097034;28;20257;-66
2021/03/24 01:10:41;;;;;;;11.98;7.53;;;;;;;2.63;63.87;94678.03;5094289;28;20585;-67
2021/03/24 01:13:09;;;;;;;11.65;7.85;;;;;;;2.42;64.78;94665.50;5100765;28;20202;-67
2021/03/24 01:15:37;;;;;;;11.07;8.07;;;;;;;2.53;65.02;94665.63;5102820;28;20274;-67
2021/03/24 01:18:03;;;;;;;11.10;7.97;;;;;;;2.73;64.44;94666.25;5097650;28;20691;-66
2021/03/24 01:20:33;;;;;;;11.95;7.53;;;;;;;2.65;64.64;94647.59;5092744;28;20195;-68
2021/03/24 01:22:59;;;;;;;12.27;8.00;;;;;;;2.61;64.50;94644.63;5098097;28;20265;-66
2021/03/24 01:25:26;;;;;;;11.07;8.15;;;;;;;2.79;63.92;94639.50;5091835;28;20203;-66
2021/03/24 01:27:54;;;;;;;11.02;7.85;;;;;;;2.71;64.09;94634.63;5101915;28;20226;-68
2021/03/24 01:30:23;;;;;;;12.40;7.60;;;;;;;2.56;64.22;94628.97;5107629;28;20227;-63
2021/03/24 01:32:50;;;;;;;12.13;7.55;;;;;;;2.69;63.58;94626.28;5101596;28;20559;-64
2021/03/24 01:35:17;;;;;;;12.15;7.60;;;;;;;2.77;62.75;94615.63;5104871;28;20583;-66
2021/03/24 01:37:44;;;;;;;11.32;7.50;;;;;;;2.94;62.43;94616.66;5099551;28;20210;-67
2021/03/24 01:40:31;;;;;;;12.10;7.50;;;;;;;2.69;62.81;94623.69;5092079;28;20263;-69
2021/03/24 01:43:04;;;;;;;13.32;8.27;;;;;;;2.80;62.29;94625.56;5102781;28;20289;-66
2021/03/24 01:45:30;;;;;;;12.52;7.97;;;;;;;2.66;61.76;94618.94;5103963;28;20229;-68
2021/03/24 01:48:01;;;;;;;8.60;6.45;;;;;;;2.36;62.14;94618.00;5098944;28;20194;-64
2021/03/24 01:50:29;;;;;;;9.63;6.90;;;;;;;2.57;61.76;94615.06;5092433;28;20202;-69
2021/03/24 01:53:09;;;;;;;12.02;8.95;;;;;;;2.67;61.38;94611.97;5096970;28;20203;-63
2021/03/24 01:55:36;;;;;;;15.50;9.27;;;;;;;2.72;61.39;94618.06;5093466;28;20195;-65
2021/03/24 01:58:03;;;;;;;17.65;8.88;;;;;;;2.60;61.77;94619.78;5097446;28;20689;-63
2021/03/24 02:00:37;;;;;;;13.95;9.20;;;;;;;2.26;63.54;94612.53;5092315;28;21022;-64
2021/03/24 02:03:05;;;;;;;16.92;9.65;;;;;;;2.56;62.99;94623.81;5097216;28;20199;-64
2021/03/24 02:05:32;;;;;;;11.95;9.43;;;;;;;2.62;62.72;94612.63;5094909;28;20277;-65
2021/03/24 02:08:08;;;;;;;18.38;10.70;;;;;;;2.68;63.05;94606.56;5097662;28;20234;-63
2021/03/24 02:10:37;;;;;;;13.90;9.70;;;;;;;2.81;62.87;94603.84;5093001;28;20195;-65
2021/03/24 02:13:25;;;;;;;16.45;9.90;;;;;;;2.60;62.52;94599.09;5097784;28;20195;-64
2021/03/24 02:16:44;;;;;;;15.30;9.57;;;;;;;2.81;62.06;94606.44;5101013;28;20652;-67
2021/03/24 02:19:43;;;;;;;13.10;9.52;;;;;;;2.62;62.03;94610.03;5087711;28;20199;-67
2021/03/24 02:22:13;;;;;;;15.68;9.90;;;;;;;2.58;62.42;94603.69;5085347;28;20310;-68
2021/03/24 02:24:51;;;;;;;15.52;10.52;;;;;;;2.76;62.03;94603.72;5089595;28;20210;-67
2021/03/24 02:27:24;;;;;;;18.00;11.05;;;;;;;2.95;61.58;94604.53;5101724;28;20663;-66
2021/03/24 02:29:58;;;;;;;17.67;10.73;;;;;;;2.79;61.46;94598.09;5095056;28;20187;-66
2021/03/24 02:32:28;;;;;;;15.55;10.50;;;;;;;2.67;61.62;94584.31;5103012;28;20215;-65
2021/03/24 02:35:00;;;;;;;17.75;11.32;;;;;;;2.90;61.20;94592.22;5095242;28;20654;-67
2021/03/24 02:37:30;;;;;;;14.35;10.80;;;;;;;2.77;61.54;94600.09;5102617;28;20199;-64
2021/03/24 02:39:58;;;;;;;17.80;11.50;;;;;;;3.06;61.11;94599.44;5095064;28;20205;-68
2021/03/24 02:42:25;;;;;;;20.38;11.55;;;;;;;2.89;61.34;94592.44;5102962;28;20280;-64
2021/03/24 02:44:53;;;;;;;17.67;11.93;;;;;;;2.90;61.53;94599.97;5094651;28;20187;-68
2021/03/24 02:47:20;;;;;;;18.92;12.15;;;;;;;2.97;61.02;94598.09;5102108;28;20235;-67
2021/03/24 02:49:48;;;;;;;18.27;12.05;;;;;;;3.10;60.65;94595.38;5094250;28;20255;-66
2021/03/24 02:52:15;;;;;;;17.60;11.90;;;;;;;3.10;60.90;94600.56;5102581;27;20207;-64
2021/03/24 02:54:45;;;;;;;19.55;13.05;;;;;;;2.93;61.27;94594.38;5093497;28;20741;-66
2021/03/24 02:57:11;;;;;;;16.35;12.25;;;;;;;3.02;61.20;94598.28;5103102;28;20284;-66
2021/03/24 02:59:38;;;;;;;17.77;12.57;;;;;;;2.99;60.65;94593.50;5092811;28;20210;-67
2021/03/24 03:02:15;;;;;;;16.92;11.95;;;;;;;2.85;60.93;94580.94;5101988;28;20212;-67
2021/03/24 03:05:04;;;;;;;19.67;11.90;;;;;;;2.88;60.77;94591.63;5110878;28;20618;-66
2021/03/24 03:07:40;;;;;;;19.55;12.57;;;;;;;2.91;61.46;94587.84;5101621;28;20313;-66
2021/03/24 03:10:12;;;;;;;20.20;12.40;;;;;;;2.71;61.18;94590.63;5094611;28;20228;-68
2021/03/24 03:12:49;;;;;;;16.08;11.98;;;;;;;2.67;61.64;94581.72;5102556;28;20261;-69
2021/03/24 03:15:27;;;;;;;19.73;12.65;;;;;;;2.86;61.33;94588.50;5094146;28;20619;-66
2021/03/24 03:17:58;;;;;;;17.40;12.25;;;;;;;2.91;61.14;94595.59;5104571;28;20579;-67
2021/03/24 03:20:28;;;;;;;18.90;12.30;;;;;;;2.87;61.36;94590.06;5106361;28;20578;-65
2021/03/24 03:23:22;;;;;;;17.52;12.25;;;;;;;2.70;62.14;94589.03;5104753;28;20202;-67
2021/03/24 03:25:58;;;;;;;18.00;12.07;;;;;;;2.81;61.51;94585.75;5098775;28;20405;-65
2021/03/24 03:28:27;;;;;;;16.42;11.95;;;;;;;2.63;62.38;94593.50;5103820;28;20202;-66
2021/03/24 03:30:56;;;;;;;18.80;12.77;;;;;;;2.56;62.69;94587.59;5103813;28;20179;-65
2021/03/24 03:33:26;;;;;;;17.75;11.23;;;;;;;2.30;63.63;94590.41;5103731;28;20571;-68
2021/03/24 03:35:54;;;;;;;18.00;12.13;;;;;;;2.56;63.99;94582.41;5105180;28;20204;-64
2021/03/24 03:38:24;;;;;;;18.60;12.48;;;;;;;2.74;63.13;94589.41;5097052;28;20594;-64
2021/03/24 03:40:55;;;;;;;17.60;11.95;;;;;;;2.92;63.37;94599.75;5097910;28;20191;-66
2021/03/24 03:43:23;;;;;;;18.98;13.25;;;;;;;2.74;63.73;94589.41;5099995;28;20246;-62
2021/03/24 03:45:51;;;;;;;20.23;13.63;;;;;;;2.69;64.26;94592.66;5099102;28;20372;-62
2021/03/24 03:48:19;;;;;;;16.00;10.10;;;;;;;2.49;64.81;94602.38;5097794;28;20617;-69
2021/03/24 03:50:59;;;;;;;20.83;14.40;;;;;;;2.49;65.12;94592.03;5096238;28;20260;-65
2021/03/24 03:54:18;;;;;;;19.67;13.30;;;;;;;2.71;64.50;94593.22;5096234;28;20210;-69
2021/03/24 03:57:04;;;;;;;24.27;14.75;;;;;;;2.50;65.33;94605.78;5072457;28;20285;-69
2021/03/24 03:59:50;;;;;;;19.98;12.88;;;;;;;2.08;66.19;94600.31;5091816;28;20221;-66
2021/03/24 04:02:23;;;;;;;19.52;12.85;;;;;;;2.23;65.46;94597.44;5107396;28;20248;-66
2021/03/24 04:05:06;;;;;;;20.70;13.32;;;;;;;2.09;65.42;94595.94;5109698;28;20228;-65
2021/03/24 04:07:41;;;;;;;22.05;15.48;;;;;;;2.23;65.21;94602.59;5100360;28;20238;-65
2021/03/24 04:10:09;;;;;;;20.05;13.40;;;;;;;2.36;64.04;94596.53;5093315;28;20724;-65
2021/03/24 04:12:38;;;;;;;22.02;14.57;;;;;;;2.25;64.27;94595.41;5100551;28;20195;-65
2021/03/24 04:15:11;;;;;;;22.02;15.13;;;;;;;2.50;63.68;94603.94;5093391;28;20213;-66
2021/03/24 04:17:51;;;;;;;17.88;12.90;;;;;;;2.59;63.16;94607.84;5100177;28;20230;-64
2021/03/24 04:20:21;;;;;;;19.63;13.82;;;;;;;2.63;62.60;94593.50;5091975;28;20240;-64
2021/03/24 04:22:52;;;;;;;22.67;13.50;;;;;;;2.54;62.89;94607.69;5100334;28;20630;-66
2021/03/24 04:25:29;;;;;;;18.75;12.88;;;;;;;2.45;62.94;94615.94;5093356;28;20245;-68
2021/03/24 04:27:59;;;;;;;16.95;11.98;;;;;;;2.58;62.41;94611.44;5103025;28;20718;-63
2021/03/24 04:30:35;;;;;;;18.98;12.65;;;;;;;2.53;62.54;94618.25;5099269;28;20298;-66
2021/03/24 04:33:02;;;;;;;19.10;11.95;;;;;;;2.42;62.86;94609.41;5104117;28;20669;-68
2021/03/24 04:35:29;;;;;;;17.85;12.15;;;;;;;2.61;62.82;94621.34;5104529;27;20199;-69
2021/03/24 04:37:59;;;;;;;24.30;12.48;;;;;;;2.63;62.45;94619.34;5099539;28;20263;-67
2021/03/24 04:40:41;;;;;;;18.40;12.30;;;;;;;2.59;63.22;94640.69;5092993;28;20199;-64
2021/03/24 04:43:12;;;;;;;21.52;12.85;;;;;;;2.68;63.80;94636.84;5104763;28;20748;-66
2021/03/24 04:45:44;;;;;;;19.58;13.18;;;;;;;2.59;64.34;94632.94;5104112;28;20209;-68
2021/03/24 04:48:26;;;;;;;17.27;12.35;;;;;;;2.36;65.70;94633.53;5097188;28;20218;-66
2021/03/24 04:51:00;;;;;;;18.55;13.05;;;;;;;2.49;66.07;94633.41;5095713;28;20210;-64
2021/03/24 04:53:32;;;;;;;20.48;13.25;;;;;;;2.63;65.28;94634.88;5095387;28;20205;-65
2021/03/24 04:56:00;;;;;;;23.65;13.77;;;;;;;2.79;65.26;94631.72;5097182;28;20199;-67
2021/03/24 04:58:34;;;;;;;20.02;14.00;;;;;;;2.70;65.22;94638.19;5097372;28;20206;-69
2021/03/24 05:01:23;;;;;;;22.58;13.98;;;;;;;2.42;66.57;94642.22;5099374;28;20195;-66
2021/03/24 05:03:54;;;;;;;21.00;13.65;;;;;;;2.30;66.08;94644.69;5098656;28;20198;-66
2021/03/24 05:06:26;;;;;;;21.38;13.60;;;;;;;2.48;66.19;94643.97;5098516;28;20320;-63
2021/03/24 05:08:52;;;;;;;21.15;13.38;;;;;;;2.47;66.11;94632.03;5102823;28;20194;-63
2021/03/24 05:11:34;;;;;;;20.48;12.52;;;;;;;2.36;65.72;94648.22;5111521;28;20198;-68
2021/03/24 05:14:25;;;;;;;16.85;12.88;;;;;;;2.48;65.99;94643.97;5113519;28;20234;-63
2021/03/24 05:17:12;;;;;;;20.35;12.60;;;;;;;2.28;66.45;94646.69;5111081;28;20676;-68
2021/03/24 05:19:39;;;;;;;20.85;14.05;;;;;;;2.34;66.46;94653.63;5111287;28;20190;-66
2021/03/24 05:22:11;;;;;;;21.20;14.35;;;;;;;2.41;66.65;94654.34;5110545;28;20222;-68
2021/03/24 05:24:40;;;;;;;21.80;15.35;;;;;;;2.37;66.13;94642.88;5111065;28;20222;-65
2021/03/24 05:27:28;;;;;;;49.42;33.65;;;;;;;2.80;66.22;94650.66;5099251;28;20218;-70
2021/03/24 05:30:03;;;;;;;27.80;14.50;;;;;;;2.56;65.66;94654.84;5090952;28;20197;-67
2021/03/24 05:32:39;;;;;;;21.58;13.77;;;;;;;2.63;65.53;94658.16;5105315;28;20236;-64
2021/03/24 05:35:26;;;;;;;19.98;12.73;;;;;;;2.73;65.97;94668.81;5097177;28;20195;-66
2021/03/24 05:37:53;;;;;;;50.35;33.38;;;;;;;2.79;66.63;94655.03;5089079;28;20202;-66
2021/03/24 05:40:39;;;;;;;33.83;23.00;;;;;;;3.18;65.24;94673.75;5088764;28;20222;-64
2021/03/24 05:43:32;;;;;;;21.08;13.25;;;;;;;3.25;64.58;94674.50;5090527;28;20195;-68
2021/03/24 05:46:17;;;;;;;17.70;11.45;;;;;;;3.32;64.33;94682.97;5090483;28;20666;-66
2021/03/24 05:48:55;;;;;;;16.45;11.45;;;;;;;3.39;64.58;94683.69;5090505;28;20214;-64
2021/03/24 05:51:39;;;;;;;16.92;11.55;;;;;;;3.57;64.67;94700.03;5090369;28;20692;-67
2021/03/24 05:54:15;;;;;;;15.60;9.80;;;;;;;3.26;64.37;94709.72;5090882;28;20271;-64
2021/03/24 05:57:22;;;;;;;13.80;9.63;;;;;;;3.19;64.49;94714.19;5090677;28;20301;-62
2021/03/24 06:00:05;;;;;;;12.57;7.88;;;;;;;2.82;65.15;94737.41;5090506;28;20206;-64
2021/03/24 06:02:56;;;;;;;12.30;8.10;;;;;;;2.94;64.68;94735.69;5093506;28;20198;-65
2021/03/24 06:05:37;;;;;;;8.98;6.82;;;;;;;2.92;64.81;94737.72;5094657;28;20222;-69
2021/03/24 06:08:36;;;;;;;8.20;6.22;;;;;;;3.12;64.29;94741.94;5093827;28;20603;-62
2021/03/24 06:11:11;;;;;;;9.55;6.53;;;;;;;3.45;63.85;94757.94;5057976;28;20895;-65
2021/03/24 06:13:56;;;;;;;9.00;6.40;;;;;;;3.45;63.76;94773.50;5090356;28;20696;-68
2021/03/24 06:16:58;;;;;;;9.07;6.57;;;;;;;3.08;65.38;94772.63;5091322;28;20222;-65
2021/03/24 06:19:45;;;;;;;9.90;6.47;;;;;;;3.20;65.35;94785.66;5092609;28;20193;-67
2021/03/24 06:22:46;;;;;;;10.25;6.97;;;;;;;3.26;65.70;94792.56;5092796;28;20187;-72
2021/03/24 06:25:31;;;;;;;9.35;6.38;;;;;;;3.50;65.37;94802.13;5093782;28;20186;-69
2021/03/24 06:28:17;;;;;;;5.85;3.85;;;;;;;3.23;63.68;94811.13;5093612;28;20254;-66
2021/03/24 06:30:52;;;;;;;4.00;2.92;;;;;;;3.10;62.34;94828.34;5093499;28;20222;-65
2021/03/24 06:33:38;;;;;;;2.60;2.03;;;;;;;3.18;62.15;94834.25;5094359;28;20183;-68
2021/03/24 06:36:19;;;;;;;4.72;2.40;;;;;;;2.81;60.88;94828.94;5093735;28;20195;-65
2021/03/24 06:39:04;;;;;;;3.53;2.00;;;;;;;3.24;59.47;94828.25;5093622;28;20230;-68
2021/03/24 06:41:51;;;;;;;7.30;3.03;;;;;;;3.50;57.92;94836.59;5093116;28;20260;-64
2021/03/24 06:44:36;;;;;;;4.25;2.40;;;;;;;3.32;57.27;94856.47;5095222;28;20229;-67
2021/03/24 06:47:11;;;;;;;5.22;2.47;;;;;;;3.38;56.64;94850.44;5093148;28;20219;-63
2021/03/24 06:49:49;;;;;;;3.88;2.15;;;;;;;3.77;55.88;94860.47;5093402;28;20198;-66
2021/03/24 06:52:22;;;;;;;3.90;2.00;;;;;;;4.14;55.21;94867.25;5093317;28;20202;-67
2021/03/24 06:55:13;;;;;;;4.80;2.70;;;;;;;4.27;52.92;94874.88;5093237;28;20199;-68
2021/03/24 06:58:04;;;;;;;4.00;2.10;;;;;;;3.85;50.72;94886.09;5093184;28;20284;-66
2021/03/24 07:01:05;;;;;;;4.00;2.10;;;;;;;3.66;51.06;94861.97;5092647;28;20226;-66
2021/03/24 07:04:01;;;;;;;4.30;2.63;;;;;;;3.70;51.30;94881.25;5091798;28;20675;-69
2021/03/24 07:06:42;;;;;;;3.13;2.00;;;;;;;3.89;50.53;94884.66;5068797;28;20230;-68
2021/03/24 07:09:24;;;;;;;7.10;3.45;;;;;;;3.72;50.54;94891.41;5093013;28;20260;-64
2021/03/24 07:12:09;;;;;;;5.50;2.47;;;;;;;3.57;49.67;94890.94;5092449;28;20202;-66
2021/03/24 07:14:44;;;;;;;3.67;1.52;;;;;;;3.25;49.50;94907.53;5091711;28;20249;-64
2021/03/24 07:17:35;;;;;;;2.53;1.70;;;;;;;3.18;49.74;94904.16;5093159;28;20191;-67
2021/03/24 07:20:40;;;;;;;3.83;1.92;;;;;;;3.21;50.31;94916.69;5092796;28;20203;-66
2021/03/24 07:23:16;;;;;;;3.25;1.80;;;;;;;2.98;50.64;94918.03;5092575;28;20592;-68
2021/03/24 07:25:45;;;;;;;4.07;2.40;;;;;;;2.95;50.73;94913.28;5092730;28;20198;-64
2021/03/24 07:28:23;;;;;;;5.57;2.80;;;;;;;3.14;50.22;94910.78;5092358;28;20211;-66
2021/03/24 07:31:16;;;;;;;3.55;2.20;;;;;;;3.00;50.59;94910.84;5092461;28;20698;-68
2021/03/24 07:33:57;;;;;;;7.15;3.85;;;;;;;3.22;50.74;94910.50;5091294;28;20217;-66
2021/03/24 07:36:46;;;;;;;3.92;2.10;;;;;;;2.97;51.19;94931.97;5092027;28;20276;-67
2021/03/24 07:39:30;;;;;;;3.40;1.90;;;;;;;2.70;51.67;94940.84;5092830;28;20202;-67
2021/03/24 07:42:05;;;;;;;2.38;1.60;;;;;;;2.59;50.71;94951.84;5092195;28;20195;-65
2021/03/24 07:45:00;;;;;;;2.65;1.90;;;;;;;2.60;51.91;94968.97;5092186;28;20199;-67
2021/03/24 07:47:34;;;;;;;5.35;2.00;;;;;;;2.86;52.15;94968.06;5092596;28;20236;-66
2021/03/24 07:50:04;;;;;;;3.17;2.13;;;;;;;2.98;51.40;94964.63;5091896;28;20191;-67
2021/03/24 07:52:46;;;;;;;3.75;1.85;;;;;;;3.05;51.49;94973.16;5092087;28;20196;-65
2021/03/24 07:55:15;;;;;;;2.80;1.70;;;;;;;3.27;50.70;94972.81;5091995;28;20268;-67
2021/03/24 07:58:21;;;;;;;2.80;1.67;;;;;;;3.21;49.60;94963.31;5091940;28;20267;-67
2021/03/24 08:01:01;;;;;;;5.10;1.92;;;;;;;3.10;49.55;94986.25;5091748;28;20211;-66
2021/03/24 08:03:48;;;;;;;4.18;2.40;;;;;;;2.77;49.49;94983.00;5092102;28;20726;-66
2021/03/24 08:06:27;;;;;;;5.05;2.90;;;;;;;2.97;50.00;94981.13;5091350;28;20195;-67
2021/03/24 08:09:04;;;;;;;5.65;3.17;;;;;;;3.21;50.16;94990.00;5091893;28;20226;-68
2021/03/24 08:11:54;;;;;;;5.13;2.67;;;;;;;3.29;49.06;94986.34;5091904;28;20688;-65
2021/03/24 08:14:32;;;;;;;4.85;2.83;;;;;;;3.35;49.42;94996.69;5093150;28;20200;-68
2021/03/24 08:17:08;;;;;;;7.20;4.30;;;;;;;3.37;49.40;94994.69;5091844;28;20264;-68
2021/03/24 08:19:50;;;;;;;9.07;4.88;;;;;;;3.54;49.11;94989.81;5091338;28;20195;-65
2021/03/24 08:22:48;;;;;;;7.13;3.80;;;;;;;3.55;47.90;94996.56;5091868;28;20211;-66
2021/03/24 08:25:33;;;;;;;4.30;2.90;;;;;;;3.35;46.89;95001.06;5037480;28;20209;-67
2021/03/24 08:28:42;;;;;;;3.67;2.38;;;;;;;3.30;47.61;94982.78;5091008;28;20219;-66
2021/03/24 08:31:46;;;;;;;5.07;2.67;;;;;;;3.47;47.00;95009.75;5091159;28;20195;-65
2021/03/24 08:34:30;;;;;;;7.13;3.15;;;;;;;3.42;46.74;95007.00;5091445;28;20195;-64
2021/03/24 08:40:18;;;;;;;5.43;2.90;;;;;;;3.58;46.49;95016.84;5090813;28;20191;-70
2021/03/24 08:42:59;;;;;;;4.88;2.80;;;;;;;3.43;47.03;95024.13;5091633;28;20205;-67
2021/03/24 08:45:45;;;;;;;4.35;2.88;;;;;;;3.70;46.54;95020.38;5091029;28;20198;-66
2021/03/24 08:48:22;;;;;;;5.15;2.80;;;;;;;3.66;46.48;95019.22;5091369;28;20284;-65
2021/03/24 08:50:59;;;;;;;7.78;3.75;;;;;;;3.62;46.37;95018.03;5090730;28;20191;-67
2021/03/24 08:53:38;;;;;;;4.95;2.80;;;;;;;3.52;46.30;95021.06;5091427;28;20233;-67
2021/03/24 08:56:28;;;;;;;6.47;3.30;;;;;;;3.79;47.10;95011.34;5090932;28;20285;-66
2021/03/24 08:59:35;;;;;;;4.45;2.53;;;;;;;3.63;46.57;95015.22;5082402;28;20688;-65
2021/03/24 09:02:28;;;;;;;5.22;2.53;;;;;;;3.93;46.33;95018.00;5091481;28;20201;-67
2021/03/24 09:05:08;;;;;;;6.88;3.53;;;;;;;4.10;45.50;95021.69;5090797;28;20282;-70
2021/03/24 09:07:59;;;;;;;6.65;3.50;;;;;;;4.33;45.91;95021.88;5090843;28;20239;-67
2021/03/24 09:11:04;;;;;;;5.05;2.63;;;;;;;4.67;45.12;95023.91;5090442;28;20205;-64
2021/03/24 09:13:44;;;;;;;6.18;3.33;;;;;;;4.87;44.83;95018.53;5090863;28;20198;-67
2021/03/24 09:16:30;;;;;;;4.10;2.20;;;;;;;4.72;44.06;95024.09;5090273;28;20664;-65
2021/03/24 09:19:35;;;;;;;6.28;3.70;;;;;;;4.55;44.28;95020.47;5089635;28;20199;-69
2021/03/24 09:22:26;;;;;;;8.48;2.70;;;;;;;4.51;43.67;95040.06;5090945;28;20203;-66
2021/03/24 09:25:22;;;;;;;5.18;2.00;;;;;;;4.70;43.97;95033.88;5089953;28;20999;-68
2021/03/24 09:28:17;;;;;;;4.28;2.40;;;;;;;5.10;42.44;95040.22;5090467;28;20253;-69
2021/03/24 09:31:21;;;;;;;4.25;2.60;;;;;;;4.68;41.64;95028.09;5090550;28;20741;-65
2021/03/24 09:33:53;;;;;;;5.13;3.20;;;;;;;4.78;42.78;95041.38;5083560;28;20238;-69
2021/03/24 09:36:40;;;;;;;7.10;3.63;;;;;;;4.50;43.06;95054.03;5092776;28;20614;-69
2021/03/24 09:39:28;;;;;;;3.38;2.00;;;;;;;4.39;42.76;95053.94;5097039;28;20203;-68
2021/03/24 09:42:31;;;;;;;9.93;3.17;;;;;;;4.30;43.11;95052.63;5098112;28;20240;-64
2021/03/24 09:45:21;;;;;;;7.32;3.40;;;;;;;4.24;42.89;95049.06;5098105;28;20355;-67
2021/03/24 09:48:00;;;;;;;8.13;4.03;;;;;;;4.11;42.94;95054.38;5097431;28;20221;-67
2021/03/24 09:50:40;;;;;;;8.25;3.92;;;;;;;4.04;42.85;95053.63;5096854;28;20325;-69
2021/03/24 09:53:27;;;;;;;5.82;2.70;;;;;;;3.59;42.46;95063.31;5097079;28;20190;-64
2021/03/24 09:55:56;;;;;;;4.78;2.40;;;;;;;3.59;42.47;95059.91;5096326;28;20194;-67
2021/03/24 09:58:23;;;;;;;4.78;2.40;;;;;;;3.35;43.09;95069.19;5097136;28;20190;-67
2021/03/24 10:01:11;;;;;;;6.38;2.90;;;;;;;3.39;43.85;95074.75;5096737;28;20209;-63
2021/03/24 10:03:59;;;;;;;2.92;1.70;;;;;;;3.45;43.75;95079.13;5097235;28;20255;-66
2021/03/24 10:06:32;;;;;;;6.60;3.08;;;;;;;3.68;43.55;95079.38;5095886;28;20292;-68
2021/03/24 10:09:10;;;;;;;5.47;2.78;;;;;;;3.37;44.28;95079.34;5096936;28;20281;-70
2021/03/24 10:12:14;;;;;;;4.55;1.90;;;;;;;3.79;44.21;95076.13;5096499;28;20282;-69
2021/03/24 10:15:02;;;;;;;3.38;1.80;;;;;;;3.80;43.64;95072.53;5094527;28;20205;-66
2021/03/24 10:17:53;;;;;;;4.93;2.47;;;;;;;3.91;44.48;95084.81;5096927;28;20213;-66
2021/03/24 10:20:46;;;;;;;6.78;3.03;;;;;;;4.17;44.28;95082.06;5096195;28;20195;-64
2021/03/24 10:23:18;;;;;;;8.40;3.47;;;;;;;4.42;44.27;95082.03;5096983;28;20195;-69
2021/03/24 10:25:49;;;;;;;6.75;2.72;;;;;;;4.36;42.59;95073.31;5096009;28;20195;-66
2021/03/24 10:28:24;;;;;;;3.40;1.90;;;;;;;4.53;42.48;95079.56;5096803;28;20256;-67
2021/03/24 10:30:58;;;;;;;5.88;2.08;;;;;;;4.45;41.17;95077.25;5096593;28;20260;-69
2021/03/24 10:33:34;;;;;;;7.57;3.78;;;;;;;4.64;41.40;95081.44;5096880;28;20195;-65
2021/03/24 10:36:28;;;;;;;4.90;2.58;;;;;;;4.73;41.79;95069.78;5095765;28;20187;-65
2021/03/24 10:38:57;;;;;;;4.45;1.73;;;;;;;5.43;41.46;95073.59;5096508;28;20290;-67
2021/03/24 10:41:42;;;;;;;3.88;2.00;;;;;;;5.75;40.06;95068.97;5096297;28;20252;-68
2021/03/24 10:44:24;;;;;;;4.82;2.83;;;;;;;5.74;40.61;95072.59;5096655;28;20703;-70
2021/03/24 10:47:02;;;;;;;6.25;2.15;;;;;;;5.94;40.61;95075.75;5096750;28;20211;-64
2021/03/24 10:49:59;;;;;;;3.65;1.50;;;;;;;5.90;40.23;95069.38;5093518;28;20557;-65
2021/03/24 10:52:35;;;;;;;8.00;3.40;;;;;;;5.60;40.93;95068.59;5089083;28;20199;-68
2021/03/24 10:55:10;;;;;;;6.53;2.65;;;;;;;5.46;40.66;95080.16;5092801;28;20587;-67
2021/03/24 10:57:55;;;;;;;6.82;3.40;;;;;;;5.38;40.85;95073.47;5093206;28;20659;-67
2021/03/24 11:00:32;;;;;;;6.70;3.95;;;;;;;5.32;41.19;95074.34;5092562;28;20297;-66
2021/03/24 11:03:02;;;;;;;2.95;1.60;;;;;;;5.36;40.25;95069.50;5093410;28;20683;-66
2021/03/24 11:05:44;;;;;;;3.70;1.70;;;;;;;5.70;39.72;95056.66;5092621;28;20190;-63
2021/03/24 11:08:26;;;;;;;1.67;1.27;;;;;;;5.75;38.58;95053.38;5091652;28;20298;-68
2021/03/24 11:11:06;;;;;;;3.55;1.95;;;;;;;5.71;38.68;95058.22;5092404;28;20212;-68
2021/03/24 11:13:50;;;;;;;5.43;2.33;;;;;;;5.80;39.18;95061.31;5096327;28;20260;-64
2021/03/24 11:16:27;;;;;;;3.92;1.90;;;;;;;5.93;37.96;95066.38;5092317;28;20199;-67
2021/03/24 11:19:06;;;;;;;2.70;1.33;;;;;;;5.47;35.94;95063.56;5092901;28;20593;-67
2021/03/24 11:21:51;;;;;;;5.82;2.60;;;;;;;5.40;38.05;95062.84;5092235;28;20222;-66
2021/03/24 11:24:50;;;;;;;9.63;4.47;;;;;;;5.13;38.17;95065.75;5092860;28;20754;-67
2021/03/24 11:27:24;;;;;;;3.00;1.92;;;;;;;5.11;37.02;95062.56;5073073;28;20589;-69
2021/03/24 11:30:01;;;;;;;4.50;2.10;;;;;;;5.31;37.92;95056.38;5092460;28;20215;-68
2021/03/24 11:32:30;;;;;;;6.25;2.58;;;;;;;5.73;37.20;95051.00;5092554;28;20605;-66
2021/03/24 11:35:13;;;;;;;4.63;2.40;;;;;;;6.02;37.29;95052.03;5092236;28;20207;-64
2021/03/24 11:38:00;;;;;;;3.83;2.10;;;;;;;6.18;34.97;95047.97;5092543;28;20227;-68
2021/03/24 11:40:33;;;;;;;3.42;1.65;;;;;;;5.70;34.93;95043.66;5091770;28;20233;-65
2021/03/24 11:43:03;;;;;;;3.65;2.10;;;;;;;5.72;34.69;95046.03;5092423;28;20276;-67
2021/03/24 11:45:31;;;;;;;3.33;1.85;;;;;;;6.45;35.62;95042.13;5091830;28;20199;-65
2021/03/24 11:48:22;;;;;;;7.40;2.63;;;;;;;7.22;33.94;95034.88;5092224;28;20237;-65
2021/03/24 11:51:09;;;;;;;3.55;2.30;;;;;;;7.50;32.90;95037.53;5091872;28;20200;-66
2021/03/24 11:54:00;;;;;;;4.03;2.10;;;;;;;7.75;32.21;95035.38;5092728;28;20746;-68
2021/03/24 11:57:03;;;;;;;3.78;1.58;;;;;;;7.30;31.06;95031.94;5090703;28;20203;-70
2021/03/24 12:00:03;;;;;;;1.63;1.17;;;;;;;7.17;32.20;95033.75;5091971;28;20194;-68
2021/03/24 12:02:48;;;;;;;1.98;1.25;;;;;;;8.03;30.57;95032.72;5092041;28;20230;-72
2021/03/24 12:05:25;;;;;;;2.85;1.60;;;;;;;8.96;29.83;95014.56;5091538;28;20657;-68
2021/03/24 12:08:13;;;;;;;3.63;1.60;;;;;;;8.85;30.75;95010.25;5091754;28;20238;-67
2021/03/24 12:10:58;;;;;;;3.90;1.90;;;;;;;9.67;29.42;95018.81;5091790;28;20200;-69
2021/03/24 12:13:32;;;;;;;2.28;1.60;;;;;;;9.63;29.78;95017.72;5091713;28;20252;-70
2021/03/24 12:16:04;;;;;;;6.10;2.33;;;;;;;9.34;29.38;95011.91;5091334;28;20198;-67
2021/03/24 12:18:48;;;;;;;5.15;2.33;;;;;;;9.23;28.17;95012.03;5090617;28;20196;-67
2021/03/24 12:21:36;;;;;;;4.63;2.15;;;;;;;8.62;29.46;95011.25;5090882;28;20195;-68
2021/03/24 12:24:27;;;;;;;3.40;1.90;;;;;;;8.97;29.51;95003.88;5091838;28;20191;-68
2021/03/24 12:27:06;;;;;;;5.50;2.30;;;;;;;9.54;28.81;94999.06;5091962;28;20187;-64
2021/03/24 12:29:34;;;;;;;3.72;1.48;;;;;;;8.69;27.38;95011.06;5092642;28;20213;-71
2021/03/24 12:32:05;;;;;;;3.97;1.27;;;;;;;9.27;27.63;95007.91;5092067;28;20587;-66